createdAt,value
2018-03-21T00:01:11.965Z,89.34
2018-03-21T00:03:39.717Z,89.27
2018-03-21T00:06:07.269Z,89.30
2018-03-21T00:08:34.819Z,89.32
2018-03-21T00:11:02.578Z,89.44
2018-03-21T00:13:30.122Z,89.44
2018-03-21T00:15:57.690Z,89.29
2018-03-21T00:18:25.415Z,89.11
2018-03-21T00:20:52.967Z,89.03
2018-03-21T00:23:20.511Z,88.88
2018-03-21T00:25:48.106Z,88.98
2018-03-21T00:28:15.654Z,89.46
2018-03-21T00:30:43.199Z,89.39
2018-03-21T00:33:10.895Z,89.71
2018-03-21T00:35:38.447Z,89.75
2018-03-21T00:38:06.005Z,89.50
2018-03-21T00:40:33.581Z,89.42
2018-03-21T00:43:01.134Z,89.22
2018-03-21T00:45:28.698Z,89.06
2018-03-21T00:47:56.279Z,89.14
2018-03-21T00:50:23.827Z,88.94
2018-03-21T00:52:51.380Z,88.81
2018-03-21T00:55:19.251Z,88.76
2018-03-21T00:57:46.814Z,88.94
2018-03-21T01:00:14.386Z,89.01
2018-03-21T01:02:41.992Z,89.31
2018-03-21T01:05:09.553Z,89.72
2018-03-21T01:07:37.110Z,90.06
2018-03-21T01:10:04.804Z,89.91
2018-03-21T01:12:32.351Z,89.97
2018-03-21T01:14:59.899Z,89.99
2018-03-21T01:17:27.481Z,90.44
2018-03-21T01:19:55.032Z,90.35
2018-03-21T01:22:22.598Z,90.27
2018-03-21T01:24:50.322Z,90.31
2018-03-21T01:27:17.878Z,90.30
2018-03-21T01:29:45.438Z,90.20
2018-03-21T01:32:13.036Z,89.99
2018-03-21T01:34:40.588Z,89.94
2018-03-21T01:37:08.166Z,89.87
2018-03-21T01:39:35.880Z,89.66
2018-03-21T01:42:03.450Z,89.64
2018-03-21T01:44:31.007Z,89.76
2018-03-21T01:46:58.662Z,89.95
2018-03-21T01:49:26.235Z,90.32
2018-03-21T01:51:53.785Z,90.25
2018-03-21T01:54:21.522Z,90.07
2018-03-21T01:56:49.078Z,89.81
2018-03-21T01:59:16.643Z,89.87
2018-03-21T02:01:44.205Z,89.74
2018-03-21T02:04:11.767Z,89.78
2018-03-21T02:06:39.495Z,89.79
2018-03-21T02:09:07.058Z,89.81
2018-03-21T02:11:34.634Z,89.99
2018-03-21T02:14:02.220Z,89.64
2018-03-21T02:16:29.767Z,89.86
2018-03-21T02:18:57.309Z,89.50
2018-03-21T02:21:25.047Z,89.17
2018-03-21T02:23:52.598Z,89.31
2018-03-21T02:26:20.141Z,89.33
2018-03-21T02:28:47.874Z,89.06
2018-03-21T02:31:15.422Z,88.88
2018-03-21T02:33:42.975Z,88.70
2018-03-21T02:36:10.666Z,88.76
2018-03-21T02:38:38.208Z,88.88
2018-03-21T02:41:05.770Z,88.89
2018-03-21T02:43:33.377Z,88.75
2018-03-21T02:46:00.939Z,88.81
2018-03-21T02:48:28.487Z,88.96
2018-03-21T02:50:56.070Z,88.87
2018-03-21T02:53:23.624Z,88.79
2018-03-21T02:55:51.163Z,88.44
2018-03-21T02:58:18.766Z,88.45
2018-03-21T03:00:46.345Z,88.26
2018-03-21T03:03:13.903Z,88.44
2018-03-21T03:05:41.633Z,88.39
2018-03-21T03:08:09.199Z,88.59
2018-03-21T03:10:36.755Z,88.76
2018-03-21T03:13:04.478Z,88.79
2018-03-21T03:15:32.030Z,88.82
2018-03-21T03:17:59.573Z,88.69
2018-03-21T03:20:27.178Z,88.29
2018-03-21T03:22:54.721Z,87.87
2018-03-21T03:25:22.266Z,88.12
2018-03-21T03:27:49.845Z,88.46
2018-03-21T03:30:17.402Z,88.38
2018-03-21T03:32:44.958Z,88.37
2018-03-21T03:35:12.830Z,88.72
2018-03-21T03:37:40.379Z,89.05
2018-03-21T03:40:07.935Z,88.82
2018-03-21T03:42:35.654Z,88.85
2018-03-21T03:45:03.222Z,88.80
2018-03-21T03:47:30.765Z,88.78
2018-03-21T03:49:58.343Z,88.91
2018-03-21T03:52:25.907Z,89.05
2018-03-21T03:54:53.452Z,89.03
2018-03-21T03:57:21.187Z,89.15
2018-03-21T03:59:48.751Z,89.06
2018-03-21T04:02:16.342Z,88.83
2018-03-21T04:04:43.934Z,88.90
2018-03-21T04:07:11.478Z,89.05
2018-03-21T04:09:39.047Z,89.18
2018-03-21T04:12:06.770Z,89.21
2018-03-21T04:14:34.348Z,89.18
2018-03-21T04:17:01.892Z,89.04
2018-03-21T04:19:29.575Z,89.12
2018-03-21T04:21:57.132Z,89.84
2018-03-21T04:24:24.700Z,90.28
2018-03-21T04:26:52.290Z,90.29
2018-03-21T04:29:19.850Z,90.32
2018-03-21T04:31:47.414Z,89.95
2018-03-21T04:34:15.163Z,89.70
2018-03-21T04:36:42.712Z,89.47
2018-03-21T04:39:10.262Z,89.68
2018-03-21T04:41:38.022Z,89.54
2018-03-21T04:44:05.569Z,89.67
2018-03-21T04:46:33.143Z,89.85
2018-03-21T04:49:00.894Z,89.82
2018-03-21T04:51:28.472Z,89.69
2018-03-21T04:53:56.033Z,89.79
2018-03-21T04:56:23.621Z,89.75
2018-03-21T04:58:51.199Z,89.64
2018-03-21T05:01:18.757Z,89.62
2018-03-21T05:03:46.354Z,89.69
2018-03-21T05:06:13.924Z,89.82
2018-03-21T05:08:41.469Z,89.45
2018-03-21T05:11:09.176Z,89.49
2018-03-21T05:13:36.721Z,89.47
2018-03-21T05:16:04.274Z,89.62
2018-03-21T05:18:32.006Z,89.37
2018-03-21T05:20:59.553Z,88.95
2018-03-21T05:23:28.006Z,88.72
2018-03-21T05:25:55.595Z,88.61
2018-03-21T05:28:23.146Z,88.54
2018-03-21T05:30:50.954Z,88.63
2018-03-21T05:33:18.647Z,88.76
2018-03-21T05:35:46.198Z,88.63
2018-03-21T05:38:13.760Z,88.39
2018-03-21T05:40:41.332Z,88.58
2018-03-21T05:43:08.885Z,88.66
2018-03-21T05:45:36.440Z,88.64
2018-03-21T05:48:04.197Z,88.39
2018-03-21T05:50:31.755Z,88.40
2018-03-21T05:52:59.297Z,88.42
2018-03-21T05:55:27.031Z,88.19
2018-03-21T05:57:54.587Z,88.27
2018-03-21T06:00:22.129Z,88.22
2018-03-21T06:02:49.718Z,88.15
2018-03-21T06:05:17.306Z,87.89
2018-03-21T06:07:44.860Z,87.83
2018-03-21T06:10:12.735Z,87.56
2018-03-21T06:12:40.291Z,87.36
2018-03-21T06:15:07.868Z,87.24
2018-03-21T06:17:35.466Z,87.18
2018-03-21T06:20:03.049Z,86.83
2018-03-21T06:22:30.644Z,86.99
2018-03-21T06:24:58.254Z,87.00
2018-03-21T06:27:25.803Z,87.03
2018-03-21T06:29:53.365Z,86.52
2018-03-21T06:32:20.943Z,86.33
2018-03-21T06:34:48.493Z,85.93
2018-03-21T06:37:16.043Z,86.04
2018-03-21T06:39:43.617Z,86.11
2018-03-21T06:42:11.170Z,86.10
2018-03-21T06:44:38.742Z,86.07
2018-03-21T06:47:06.444Z,85.96
2018-03-21T06:49:33.995Z,86.03
2018-03-21T06:52:01.548Z,85.12
2018-03-21T06:54:29.226Z,85.27
2018-03-21T06:56:56.788Z,85.15
2018-03-21T06:59:24.342Z,84.58
2018-03-21T07:01:51.889Z,85.23
2018-03-21T07:04:19.438Z,86.20
2018-03-21T07:06:47.169Z,85.77
2018-03-21T07:09:14.739Z,86.06
2018-03-21T07:11:42.323Z,85.93
2018-03-21T07:14:21.593Z,85.75
2018-03-21T07:16:49.187Z,85.66
2018-03-21T07:19:16.747Z,86.05
2018-03-21T07:21:44.371Z,85.92
2018-03-21T07:24:11.929Z,86.00
2018-03-21T07:26:39.502Z,86.13
2018-03-21T07:29:07.233Z,85.83
2018-03-21T07:31:34.807Z,85.80
2018-03-21T07:34:02.367Z,84.95
2018-03-21T07:36:30.045Z,84.18
2018-03-21T07:38:57.594Z,83.80
2018-03-21T07:41:25.140Z,83.98
2018-03-21T07:43:52.756Z,83.53
2018-03-21T07:46:20.311Z,83.55
2018-03-21T07:48:47.890Z,83.89
2018-03-21T07:51:15.782Z,85.37
2018-03-21T07:53:43.368Z,85.91
2018-03-21T07:56:10.920Z,86.00
2018-03-21T07:58:38.509Z,86.06
2018-03-21T08:01:06.068Z,84.79
2018-03-21T08:03:33.637Z,84.75
2018-03-21T08:06:01.237Z,84.13
2018-03-21T08:08:28.792Z,83.34
2018-03-21T08:10:56.339Z,82.37
2018-03-21T08:13:24.039Z,80.74
2018-03-21T08:15:56.948Z,79.14
2018-03-21T08:18:24.498Z,78.46
2018-03-21T08:20:52.230Z,77.62
2018-03-21T08:23:19.785Z,75.02
2018-03-21T08:25:47.341Z,75.92
2018-03-21T08:28:15.074Z,74.36
2018-03-21T08:30:42.640Z,74.93
2018-03-21T08:33:10.194Z,73.92
2018-03-21T08:35:38.645Z,75.17
2018-03-21T08:38:06.204Z,74.93
2018-03-21T08:40:33.767Z,74.88
2018-03-21T08:43:01.365Z,73.87
2018-03-21T08:45:28.918Z,73.73
2018-03-21T08:47:56.459Z,72.14
2018-03-21T08:50:24.037Z,73.42
2018-03-21T08:52:51.627Z,72.78
2018-03-21T08:55:19.179Z,74.07
2018-03-21T08:57:46.765Z,74.60
2018-03-21T09:00:14.319Z,74.17
2018-03-21T09:02:41.882Z,74.65
2018-03-21T09:05:09.561Z,75.31
2018-03-21T09:07:37.117Z,72.24
2018-03-21T09:10:04.720Z,72.62
2018-03-21T09:12:32.296Z,72.61
2018-03-21T09:14:59.845Z,72.06
2018-03-21T09:17:27.388Z,73.96
2018-03-21T09:19:54.979Z,73.54
2018-03-21T09:22:22.562Z,73.76
2018-03-21T09:24:50.130Z,73.82
2018-03-21T09:27:17.858Z,71.95
2018-03-21T09:29:45.418Z,71.78
2018-03-21T09:32:12.971Z,72.53
2018-03-21T09:34:40.554Z,72.34
2018-03-21T09:37:08.103Z,74.14
2018-03-21T09:39:35.668Z,75.23
2018-03-21T09:42:03.267Z,76.39
2018-03-21T09:44:30.830Z,76.52
2018-03-21T09:46:58.411Z,78.20
2018-03-21T09:49:26.000Z,78.61
2018-03-21T09:51:53.559Z,78.57
2018-03-21T09:54:21.101Z,78.86
2018-03-21T09:56:48.835Z,77.09
2018-03-21T09:59:16.393Z,77.41
2018-03-21T10:01:43.942Z,76.71
2018-03-21T10:04:11.754Z,77.53
2018-03-21T10:06:39.306Z,78.23
2018-03-21T10:09:06.911Z,76.76
2018-03-21T10:11:34.610Z,73.79
2018-03-21T10:14:02.164Z,72.27
2018-03-21T10:16:29.722Z,72.84
2018-03-21T10:18:57.307Z,69.15
2018-03-21T10:21:24.875Z,71.32
2018-03-21T10:23:52.438Z,73.49
2018-03-21T10:26:20.046Z,73.11
2018-03-21T10:28:47.613Z,74.79
2018-03-21T10:31:16.568Z,72.78
2018-03-21T10:33:44.294Z,72.93
2018-03-21T10:36:11.875Z,69.80
2018-03-21T10:38:39.451Z,71.35
2018-03-21T10:41:07.362Z,71.13
2018-03-21T10:43:34.951Z,71.82
2018-03-21T10:46:02.532Z,70.54
2018-03-21T10:48:30.124Z,69.59
2018-03-21T10:50:57.713Z,69.23
2018-03-21T10:53:25.314Z,70.81
2018-03-21T10:55:52.919Z,69.71
2018-03-21T10:58:20.476Z,70.23
2018-03-21T11:00:48.038Z,67.07
2018-03-21T11:03:15.930Z,65.95
2018-03-21T11:05:43.492Z,65.89
2018-03-21T11:08:11.075Z,65.37
2018-03-21T11:10:39.371Z,64.91
2018-03-21T11:13:06.926Z,64.14
2018-03-21T11:15:34.512Z,63.55
2018-03-21T11:18:02.205Z,63.44
2018-03-21T11:20:29.764Z,61.53
2018-03-21T11:22:57.323Z,61.73
2018-03-21T11:25:24.923Z,61.66
2018-03-21T11:27:52.482Z,59.41
2018-03-21T11:30:20.037Z,59.49
2018-03-21T11:32:47.831Z,57.72
2018-03-21T11:35:15.406Z,57.47
2018-03-21T11:37:42.976Z,55.62
2018-03-21T11:40:10.916Z,57.34
2018-03-21T11:42:38.468Z,54.63
2018-03-21T11:45:06.021Z,54.65
2018-03-21T11:47:34.273Z,55.46
2018-03-21T11:50:01.818Z,54.01
2018-03-21T11:52:29.369Z,54.05
2018-03-21T11:54:57.099Z,54.51
2018-03-21T11:57:24.656Z,56.98
2018-03-21T11:59:52.231Z,57.40
2018-03-21T12:02:19.805Z,57.85
2018-03-21T12:04:47.362Z,56.83
2018-03-21T12:07:14.942Z,59.98
2018-03-21T12:09:42.491Z,59.40
2018-03-21T12:12:10.040Z,57.28
2018-03-21T12:14:37.962Z,58.39
2018-03-21T12:17:05.539Z,59.19
2018-03-21T12:19:33.111Z,60.17
2018-03-21T12:22:00.702Z,60.42
2018-03-21T12:24:28.268Z,61.73
2018-03-21T12:26:55.831Z,60.00
2018-03-21T12:29:23.421Z,60.90
2018-03-21T12:31:50.983Z,60.56
2018-03-21T12:34:18.533Z,61.96
2018-03-21T12:36:46.132Z,61.95
2018-03-21T12:39:16.645Z,63.65
2018-03-21T12:41:44.231Z,62.82
2018-03-21T12:44:11.994Z,61.35
2018-03-21T12:46:39.550Z,61.87
2018-03-21T12:49:07.099Z,61.43
2018-03-21T12:51:34.699Z,60.43
2018-03-21T12:54:02.265Z,59.30
2018-03-21T12:56:29.828Z,57.88
2018-03-21T12:58:57.437Z,57.59
2018-03-21T13:01:25.012Z,55.78
2018-03-21T13:03:52.579Z,56.57
2018-03-21T13:06:20.203Z,57.69
2018-03-21T13:08:47.754Z,59.19
2018-03-21T13:11:15.313Z,59.90
2018-03-21T13:13:42.915Z,57.28
2018-03-21T13:16:10.555Z,57.71
2018-03-21T13:18:38.250Z,58.86
2018-03-21T13:21:05.788Z,59.24
2018-03-21T13:23:33.344Z,59.10
2018-03-21T13:26:00.949Z,60.95
2018-03-21T13:28:28.519Z,60.02
2018-03-21T13:30:56.787Z,59.05
2018-03-21T13:33:24.333Z,60.87
2018-03-21T13:35:51.886Z,59.75
2018-03-21T13:38:19.566Z,60.50
2018-03-21T13:40:47.122Z,60.53
2018-03-21T13:43:14.685Z,60.16
2018-03-21T13:45:42.426Z,61.23
2018-03-21T13:48:09.998Z,61.96
2018-03-21T13:50:37.598Z,61.92
2018-03-21T13:53:05.331Z,63.14
2018-03-21T13:55:32.873Z,63.78
2018-03-21T13:58:00.422Z,63.68
2018-03-21T14:00:28.008Z,63.02
2018-03-21T14:02:55.565Z,62.81
2018-03-21T14:05:23.172Z,63.76
2018-03-21T14:07:50.861Z,64.28
2018-03-21T14:10:18.424Z,63.44
2018-03-21T14:12:45.980Z,63.58
2018-03-21T14:15:13.564Z,63.86
2018-03-21T14:17:41.112Z,63.92
2018-03-21T14:20:09.321Z,64.10
2018-03-21T14:22:37.076Z,64.34
2018-03-21T14:25:04.686Z,64.62
2018-03-21T14:27:32.239Z,65.03
2018-03-21T14:29:59.877Z,63.53
2018-03-21T14:32:27.426Z,64.35
2018-03-21T14:34:54.998Z,64.75
2018-03-21T14:37:22.577Z,64.92
2018-03-21T14:39:50.135Z,65.26
2018-03-21T14:42:17.691Z,65.55
2018-03-21T14:44:45.291Z,64.87
2018-03-21T14:47:12.846Z,65.33
2018-03-21T14:49:40.421Z,63.79
2018-03-21T14:52:08.128Z,64.31
2018-03-21T14:54:35.679Z,64.87
2018-03-21T14:57:03.261Z,65.88
2018-03-21T14:59:30.987Z,66.64
2018-03-21T15:01:58.595Z,68.51
2018-03-21T15:04:26.150Z,67.46
2018-03-21T15:06:54.097Z,67.26
2018-03-21T15:09:21.658Z,67.75
2018-03-21T15:11:49.222Z,67.43
2018-03-21T15:14:16.806Z,66.60
2018-03-21T15:16:44.350Z,66.39
2018-03-21T15:22:04.114Z,66.41
2018-03-21T15:24:31.663Z,65.55
2018-03-21T15:26:59.219Z,66.24
2018-03-21T15:29:26.853Z,67.00
2018-03-21T15:31:54.394Z,67.13
2018-03-21T15:34:21.939Z,67.52
2018-03-21T15:36:49.647Z,68.27
2018-03-21T15:39:17.206Z,67.82
2018-03-21T15:41:44.755Z,67.41
2018-03-21T15:44:12.515Z,67.37
2018-03-21T15:46:40.061Z,67.31
2018-03-21T15:49:07.609Z,68.61
2018-03-21T15:51:35.201Z,69.57
2018-03-21T15:54:02.754Z,68.39
2018-03-21T15:56:30.323Z,68.61
2018-03-21T15:58:58.067Z,69.96
2018-03-21T16:01:25.626Z,69.76
2018-03-21T16:03:53.191Z,70.10
2018-03-21T16:06:20.786Z,69.49
2018-03-21T16:08:48.365Z,70.32
2018-03-21T16:11:15.923Z,70.46
2018-03-21T16:13:43.524Z,70.78
2018-03-21T16:16:11.098Z,71.68
2018-03-21T16:18:38.662Z,71.35
2018-03-21T16:21:06.592Z,71.80
2018-03-21T16:23:34.178Z,71.97
2018-03-21T16:26:01.730Z,71.95
2018-03-21T16:28:29.324Z,71.87
2018-03-21T16:30:57.023Z,70.75
2018-03-21T16:33:24.717Z,71.23
2018-03-21T16:35:52.267Z,71.30
2018-03-21T16:38:19.837Z,72.08
2018-03-21T16:40:47.739Z,71.24
2018-03-21T16:43:15.333Z,71.83
2018-03-21T16:45:42.887Z,71.08
2018-03-21T16:48:10.490Z,69.85
2018-03-21T16:50:38.076Z,70.12
2018-03-21T16:53:05.629Z,70.82
2018-03-21T16:55:33.202Z,70.26
2018-03-21T16:58:00.751Z,70.21
2018-03-21T17:00:28.320Z,71.73
2018-03-21T17:02:56.014Z,70.59
2018-03-21T17:05:23.575Z,70.52
2018-03-21T17:07:51.127Z,70.61
2018-03-21T17:10:24.628Z,70.38
2018-03-21T17:12:52.196Z,70.84
2018-03-21T17:15:19.748Z,71.05
2018-03-21T17:17:47.610Z,71.36
2018-03-21T17:20:15.824Z,71.61
2018-03-21T17:22:43.369Z,71.92
2018-03-21T17:25:11.017Z,72.18
2018-03-21T17:27:38.563Z,71.68
2018-03-21T17:30:06.161Z,70.61
2018-03-21T17:32:33.898Z,70.74
2018-03-21T17:35:01.448Z,71.90
2018-03-21T17:37:29.046Z,71.65
2018-03-21T17:39:56.643Z,71.41
2018-03-21T17:42:24.197Z,72.01
2018-03-21T17:44:51.748Z,71.28
2018-03-21T17:47:19.333Z,71.52
2018-03-21T17:49:46.894Z,72.23
2018-03-21T17:52:14.472Z,71.71
2018-03-21T17:54:43.023Z,72.59
2018-03-21T17:57:10.606Z,72.81
2018-03-21T17:59:38.163Z,71.58
2018-03-21T18:02:05.751Z,72.05
2018-03-21T18:04:33.302Z,71.37
2018-03-21T18:07:00.865Z,72.60
2018-03-21T18:09:28.779Z,72.31
2018-03-21T18:11:56.355Z,72.36
2018-03-21T18:14:23.928Z,72.81
2018-03-21T18:16:51.815Z,73.07
2018-03-21T18:19:19.385Z,73.10
2018-03-21T18:21:46.934Z,73.20
2018-03-21T18:24:14.671Z,73.38
2018-03-21T18:26:42.234Z,73.01
2018-03-21T18:29:09.802Z,73.30
2018-03-21T18:31:43.867Z,72.99
2018-03-21T18:34:11.438Z,73.30
2018-03-21T18:36:39.895Z,73.18
2018-03-21T18:39:07.624Z,73.06
2018-03-21T18:41:35.212Z,72.97
2018-03-21T18:44:02.782Z,72.23
2018-03-21T18:46:30.483Z,73.30
2018-03-21T18:48:58.066Z,72.69
2018-03-21T18:51:25.632Z,72.48
2018-03-21T18:53:53.418Z,73.49
2018-03-21T18:56:20.994Z,72.71
2018-03-21T18:58:48.569Z,74.09
2018-03-21T19:01:16.146Z,74.48
2018-03-21T19:03:43.734Z,73.72
2018-03-21T19:06:11.286Z,73.98
2018-03-21T19:08:38.896Z,74.25
2018-03-21T19:11:06.471Z,73.48
2018-03-21T19:13:34.036Z,74.28
2018-03-21T19:16:01.652Z,74.13
2018-03-21T19:18:29.207Z,73.80
2018-03-21T19:20:56.788Z,72.88
2018-03-21T19:23:24.503Z,73.24
2018-03-21T19:25:52.096Z,73.24
2018-03-21T19:28:19.659Z,73.75
2018-03-21T19:30:47.230Z,73.99
2018-03-21T19:33:14.785Z,74.12
2018-03-21T19:35:42.355Z,73.47
2018-03-21T19:38:09.972Z,73.06
2018-03-21T19:40:37.525Z,73.15
2018-03-21T19:43:05.086Z,73.56
2018-03-21T19:45:32.809Z,73.50
2018-03-21T19:48:00.421Z,73.46
2018-03-21T19:50:27.996Z,72.76
2018-03-21T19:52:55.603Z,73.52
2018-03-21T19:55:23.171Z,73.23
2018-03-21T19:57:50.723Z,73.04
2018-03-21T20:00:18.326Z,72.85
2018-03-21T20:02:45.917Z,73.25
2018-03-21T20:05:13.468Z,73.41
2018-03-21T20:07:41.173Z,73.80
2018-03-21T20:10:08.741Z,74.18
2018-03-21T20:12:36.303Z,74.21
2018-03-21T20:15:03.972Z,74.16
2018-03-21T20:17:31.549Z,74.78
2018-03-21T20:19:59.104Z,73.79
2018-03-21T20:22:26.800Z,73.63
2018-03-21T20:24:54.388Z,73.95
2018-03-21T20:27:21.974Z,74.10
2018-03-21T20:29:49.769Z,73.92
2018-03-21T20:32:17.356Z,74.04
2018-03-21T20:34:44.913Z,74.14
2018-03-21T20:37:12.574Z,74.43
2018-03-21T20:39:40.133Z,74.44
2018-03-21T20:42:07.722Z,74.11
2018-03-21T20:44:35.335Z,73.64
2018-03-21T20:47:02.920Z,74.87
2018-03-21T20:49:30.486Z,75.01
2018-03-21T20:51:58.220Z,74.52
2018-03-21T20:54:25.802Z,75.08
2018-03-21T20:56:53.352Z,74.52
2018-03-21T20:59:21.076Z,74.94
2018-03-21T21:01:48.648Z,75.44
2018-03-21T21:04:16.231Z,75.17
2018-03-21T21:06:43.893Z,75.20
2018-03-21T21:09:11.455Z,74.48
2018-03-21T21:11:39.025Z,74.50
2018-03-21T21:14:06.628Z,75.10
2018-03-21T21:16:34.208Z,74.81
2018-03-21T21:19:01.768Z,74.53
2018-03-21T21:21:29.502Z,74.20
2018-03-21T21:23:57.066Z,74.45
2018-03-21T21:26:24.605Z,74.34
2018-03-21T21:28:52.161Z,73.86
2018-03-21T21:31:19.744Z,74.14
2018-03-21T21:33:50.591Z,74.08
2018-03-21T21:36:18.150Z,74.47
2018-03-21T21:38:45.728Z,73.62
2018-03-21T21:41:13.328Z,74.14
2018-03-21T21:43:40.894Z,73.80
2018-03-21T21:46:08.482Z,73.54
2018-03-21T21:48:36.193Z,74.14
2018-03-21T21:51:03.767Z,74.72
2018-03-21T21:53:31.348Z,73.97
2018-03-21T21:55:58.960Z,73.48
2018-03-21T21:58:26.523Z,73.15
2018-03-21T22:00:54.089Z,73.38
2018-03-21T22:03:21.691Z,72.44
2018-03-21T22:05:49.249Z,72.15
2018-03-21T22:08:16.825Z,72.74
2018-03-21T22:10:44.414Z,71.90
2018-03-21T22:13:11.972Z,72.25
2018-03-21T22:15:39.525Z,72.52
2018-03-21T22:18:07.111Z,73.03
2018-03-21T22:20:34.675Z,72.69
2018-03-21T22:23:02.229Z,73.71
2018-03-21T22:25:35.875Z,74.83
2018-03-21T22:28:03.447Z,75.00
2018-03-21T22:30:31.014Z,75.23
2018-03-21T22:35:51.440Z,75.40
2018-03-21T22:38:18.996Z,75.50
2018-03-21T22:40:48.405Z,76.54
2018-03-21T22:43:16.004Z,76.14
2018-03-21T22:45:43.554Z,75.70
2018-03-21T22:48:11.103Z,75.64
2018-03-21T22:50:38.979Z,75.49
2018-03-21T22:53:06.549Z,76.03
2018-03-21T22:55:34.123Z,75.74
2018-03-21T22:58:01.706Z,76.36
2018-03-21T23:00:29.270Z,75.97
2018-03-21T23:02:56.841Z,75.81
2018-03-21T23:05:24.432Z,76.27
2018-03-21T23:07:52.013Z,76.40
2018-03-21T23:10:19.569Z,76.46
2018-03-21T23:12:47.154Z,77.96
2018-03-21T23:15:14.707Z,78.14
2018-03-21T23:17:42.263Z,78.12
2018-03-21T23:20:09.854Z,78.67
2018-03-21T23:22:37.404Z,79.02
2018-03-21T23:25:04.949Z,79.15
2018-03-21T23:27:32.550Z,79.60
2018-03-21T23:30:00.093Z,78.88
2018-03-21T23:32:27.696Z,79.40
2018-03-21T23:34:55.250Z,79.89
2018-03-21T23:37:22.814Z,80.05
2018-03-21T23:39:50.554Z,80.50
2018-03-21T23:42:18.109Z,80.52
2018-03-21T23:44:45.670Z,80.38
2018-03-21T23:50:06.084Z,80.15
2018-03-21T23:52:33.641Z,80.37
2018-03-21T23:55:01.190Z,80.49
2018-03-21T23:57:28.876Z,80.41
2018-03-21T23:59:56.422Z,80.53
